TimeEST,TemperatureF,Dew PointF,Humidity,Sea Level PressureIn,VisibilityMPH,Wind Direction,Wind SpeedMPH,Gust SpeedMPH,PrecipitationIn,Events,Conditions,WindDirDegrees,DateUTC
12:00 AM,35.6,23.0,60,30.01,15.0,WNW,8.1,-,N/A,,Overcast,290,2012-11-26 05:00:00
1:00 AM,35,22,47,30.03,15,NW,12.7,,,,Overcast,310,2012-11-26 06:00:00
1:00 AM,33.8,23.0,65,30.03,15.0,NW,9.2,-,N/A,,Overcast,310,2012-11-26 06:00:00
2:00 AM,33.8,23.0,65,30.04,15.0,WNW,12.7,-,N/A,,Overcast,300,2012-11-26 07:00:00
3:00 AM,33.8,23.0,65,30.06,15.0,NW,5.8,-,N/A,,Overcast,320,2012-11-26 08:00:00
4:00 AM,32.0,21.2,64,30.08,15.0,WSW,4.6,-,N/A,,Mostly Cloudy,250,2012-11-26 09:00:00
5:00 AM,32.0,23.0,69,30.09,15.0,WSW,3.5,-,N/A,,Mostly Cloudy,250,2012-11-26 10:00:00
6:00 AM,33.8,23.0,65,30.12,15.0,West,4.6,-,N/A,,Mostly Cloudy,260,2012-11-26 11:00:00
7:00 AM,34,23,51,30.13,15,West,8.1,,,,Mostly Cloudy,280,2012-11-26 12:00:00
7:00 AM,33.8,23.0,65,30.13,15.0,West,6.9,-,N/A,,Mostly Cloudy,280,2012-11-26 12:00:00
8:00 AM,33.8,23.0,65,30.15,15.0,WNW,8.1,-,N/A,,Mostly Cloudy,290,2012-11-26 13:00:00
9:00 AM,33.8,26.6,75,30.18,15.0,SW,6.9,-,N/A,,Mostly Cloudy,220,2012-11-26 14:00:00
10:00 AM,33.8,24.8,70,30.19,15.0,SW,8.1,-,N/A,,Mostly Cloudy,230,2012-11-26 15:00:00
11:00 AM,35.6,23.0,60,30.21,15.0,West,9.2,-,N/A,,Mostly Cloudy,280,2012-11-26 16:00:00
12:00 PM,35.6,23.0,60,30.20,15.0,West,9.2,-,N/A,,Mostly Cloudy,270,2012-11-26 17:00:00
1:00 PM,37,23,45,30.19,15,West,4.6,,,,Mostly Cloudy,270,2012-11-26 18:00:00
1:00 PM,37.4,23.0,56,30.19,15.0,WSW,8.1,-,N/A,,Mostly Cloudy,250,2012-11-26 18:00:00
2:00 PM,37.4,23.0,56,30.19,15.0,WNW,4.6,-,N/A,,Mostly Cloudy,300,2012-11-26 19:00:00
3:00 PM,35.6,23.0,60,30.19,15.0,NW,6.9,-,N/A,,Overcast,310,2012-11-26 20:00:00
4:00 PM,35.6,21.2,56,30.22,15.0,NW,9.2,-,N/A,,Overcast,310,2012-11-26 21:00:00
5:00 PM,35.6,19.4,52,30.23,15.0,NW,9.2,-,N/A,,Overcast,320,2012-11-26 22:00:00
6:00 PM,33.8,19.4,56,30.24,15.0,NW,9.2,-,N/A,,Overcast,320,2012-11-26 23:00:00
7:00 PM,33,19,43,30.25,15,NNW,9.2,,,,Overcast,340,2012-11-27 00:00:00
7:00 PM,33.8,19.4,56,30.25,15.0,NNW,8.1,-,N/A,,Overcast,340,2012-11-27 00:00:00
8:00 PM,32.0,17.6,55,30.27,15.0,NNW,6.9,-,N/A,,Overcast,340,2012-11-27 01:00:00
9:00 PM,32.0,15.8,51,30.28,15.0,North,4.6,-,N/A,,Overcast,360,2012-11-27 02:00:00
10:00 PM,30.2,17.6,60,30.30,15.0,NNW,4.6,-,N/A,,Overcast,340,2012-11-27 03:00:00
11:00 PM,32.0,15.8,51,30.30,15.0,NNW,3.5,-,N/A,,Overcast,340,2012-11-27 04:00:00